Time;durP1;ratioP1;P1;durP2;ratioP2;P2;SDS_P1;SDS_P2;PMS_P1;PMS_P2;Temp;Humidity;BMP_temperature;BMP_pressure;BME280_temperature;BME280_humidity;BME280_pressure;Samples;Min_cycle;Max_cycle;Signal;HPM_P1;HPM_P2
2022/09/12 00:01:57;;;;;;;143.88;66.93;;;;;;;;;;4982218;28;20364;-73
2022/09/12 00:04:23;;;;;;;157.77;70.60;;;;;;;;;;4975604;28;20084;-73
2022/09/12 00:06:49;;;;;;;148.85;67.38;;;;;;;;;;4984417;28;20038;-73
2022/09/12 00:09:15;;;;;;;146.18;67.30;;;;;;;;;;4978613;28;20520;-73
2022/09/12 00:11:43;;;;;;;156.48;68.68;;;;;;;;;;4982292;28;20755;-73
2022/09/12 00:14:10;;;;;;;155.82;72.60;;;;;;;;;;4982158;28;20140;-73
2022/09/12 00:16:36;;;;;;;168.73;75.90;;;;;;;;;;4998398;28;20038;-73
2022/09/12 00:19:03;;;;;;;165.18;75.72;;;;;;;;;;4983903;28;20026;-73
2022/09/12 00:21:29;;;;;;;152.45;71.07;;;;;;;;;;4983431;28;20445;-73
2022/09/12 00:23:55;;;;;;;169.07;75.82;;;;;;;;;;4982508;28;20161;-73
2022/09/12 00:26:21;;;;;;;162.35;72.20;;;;;;;;;;4984650;28;20030;-73
2022/09/12 00:28:47;;;;;;;164.63;75.03;;;;;;;;;;4984608;28;20124;-74
2022/09/12 00:31:15;;;;;;;174.38;77.13;;;;;;;;;;4984030;28;20790;-73
2022/09/12 00:33:41;;;;;;;159.35;72.72;;;;;;;;;;4978327;28;20125;-73
2022/09/12 00:36:13;;;;;;;176.18;76.93;;;;;;;;;;4984092;28;20030;-73
2022/09/12 00:38:40;;;;;;;176.60;75.35;;;;;;;;;;4981024;28;20096;-73
2022/09/12 00:41:07;;;;;;;164.77;72.32;;;;;;;;;;4982497;28;20030;-73
2022/09/12 00:43:39;;;;;;;176.45;76.55;;;;;;;;;;4982597;28;20491;-73
2022/09/12 00:46:12;;;;;;;163.48;73.35;;;;;;;;;;4984344;28;20031;-73
2022/09/12 00:48:40;;;;;;;168.20;75.70;;;;;;;;;;4984397;28;20035;-73
2022/09/12 00:51:06;;;;;;;164.85;71.38;;;;;;;;;;4982514;28;20039;-74
2022/09/12 00:53:32;;;;;;;168.23;73.93;;;;;;;;;;4982271;28;20058;-73
2022/09/12 00:55:58;;;;;;;181.55;76.35;;;;;;;;;;4979990;28;20030;-72
2022/09/12 00:58:27;;;;;;;170.30;71.60;;;;;;;;;;4982422;28;20058;-72
2022/09/12 01:00:53;;;;;;;187.48;77.55;;;;;;;;;;4985026;28;20033;-73
2022/09/12 01:03:22;;;;;;;188.77;78.78;;;;;;;;;;4981823;28;20109;-72
2022/09/12 01:06:07;;;;;;;190.75;81.07;;;;;;;;;;4980383;28;20095;-73
2022/09/12 01:08:33;;;;;;;200.80;80.53;;;;;;;;;;4979351;28;20105;-74
2022/09/12 01:10:59;;;;;;;189.07;78.43;;;;;;;;;;4983580;28;20038;-73
2022/09/12 01:13:26;;;;;;;181.10;78.15;;;;;;;;;;4982018;28;20548;-74
2022/09/12 01:15:53;;;;;;;189.70;79.78;;;;;;;;;;4984293;28;20026;-74
2022/09/12 01:18:40;;;;;;;187.35;77.68;;;;;;;;;;4986751;28;20018;-74
2022/09/12 01:21:30;;;;;;;188.55;76.82;;;;;;;;;;4966101;28;20073;-74
2022/09/12 01:24:06;;;;;;;191.90;78.80;;;;;;;;;;4956118;28;20415;-74
2022/09/12 01:26:31;;;;;;;199.65;82.28;;;;;;;;;;4985619;28;20041;-74
2022/09/12 01:28:57;;;;;;;192.82;78.85;;;;;;;;;;4986953;28;20423;-73
2022/09/12 01:31:28;;;;;;;199.10;79.45;;;;;;;;;;4986559;28;20087;-73
2022/09/12 01:33:54;;;;;;;203.73;82.88;;;;;;;;;;4986789;28;20062;-73
2022/09/12 01:36:48;;;;;;;197.02;83.72;;;;;;;;;;4986977;28;20545;-74
2022/09/12 01:39:33;;;;;;;213.73;83.85;;;;;;;;;;4981392;28;20220;-73
2022/09/12 01:42:14;;;;;;;203.18;80.65;;;;;;;;;;4985950;28;20527;-73
2022/09/12 01:44:46;;;;;;;199.80;81.65;;;;;;;;;;4958989;28;20066;-73
2022/09/12 01:47:16;;;;;;;210.73;80.75;;;;;;;;;;4987640;28;20417;-73
2022/09/12 01:49:57;;;;;;;216.82;82.97;;;;;;;;;;4988230;28;20046;-74
2022/09/12 01:52:26;;;;;;;201.65;83.28;;;;;;;;;;4986332;28;20034;-73
2022/09/12 01:55:11;;;;;;;215.15;84.72;;;;;;;;;;4986161;28;20047;-73
2022/09/12 01:57:40;;;;;;;212.80;81.50;;;;;;;;;;4986504;28;20734;-73
2022/09/12 02:00:09;;;;;;;230.25;85.22;;;;;;;;;;4968918;28;20380;-74
2022/09/12 02:02:40;;;;;;;228.45;84.40;;;;;;;;;;4985047;28;20053;-73
2022/09/12 02:05:12;;;;;;;225.80;83.88;;;;;;;;;;4986564;28;20031;-74
2022/09/12 02:07:44;;;;;;;228.23;86.80;;;;;;;;;;4985111;28;20030;-73
2022/09/12 02:10:15;;;;;;;228.32;86.13;;;;;;;;;;4985098;28;20166;-73
2022/09/12 02:12:45;;;;;;;231.57;83.97;;;;;;;;;;4980176;28;20030;-74
2022/09/12 02:15:12;;;;;;;239.73;85.82;;;;;;;;;;4986952;28;20030;-73
2022/09/12 02:17:42;;;;;;;224.73;84.13;;;;;;;;;;4984846;28;20034;-73
2022/09/12 02:20:13;;;;;;;245.15;83.55;;;;;;;;;;4985714;28;20030;-73
2022/09/12 02:22:40;;;;;;;246.85;87.95;;;;;;;;;;4984268;28;20038;-73
2022/09/12 02:25:09;;;;;;;254.27;86.00;;;;;;;;;;4988656;28;20084;-73
2022/09/12 02:27:40;;;;;;;240.88;86.68;;;;;;;;;;4983894;28;21730;-73
2022/09/12 02:30:07;;;;;;;235.25;89.28;;;;;;;;;;4969283;28;20109;-72
2022/09/12 02:32:52;;;;;;;269.15;94.57;;;;;;;;;;4983389;28;20035;-72
2022/09/12 02:35:36;;;;;;;263.58;92.68;;;;;;;;;;4984058;28;20030;-73
2022/09/12 02:38:10;;;;;;;265.15;90.88;;;;;;;;;;4985317;28;20121;-72
2022/09/12 02:40:37;;;;;;;267.40;92.88;;;;;;;;;;4985551;28;20491;-72
2022/09/12 02:43:04;;;;;;;260.02;91.00;;;;;;;;;;4981542;28;20117;-72
2022/09/12 02:45:33;;;;;;;259.80;92.72;;;;;;;;;;4985592;28;20578;-72
2022/09/12 02:48:17;;;;;;;243.68;89.53;;;;;;;;;;4980718;28;20034;-73
2022/09/12 02:50:44;;;;;;;250.05;89.38;;;;;;;;;;4985921;28;20562;-72
2022/09/12 02:53:10;;;;;;;258.13;91.82;;;;;;;;;;4985224;28;20053;-73
2022/09/12 02:55:36;;;;;;;258.33;91.78;;;;;;;;;;4986893;28;20031;-72
2022/09/12 02:58:04;;;;;;;242.90;87.55;;;;;;;;;;4985308;28;20033;-73
2022/09/12 03:00:36;;;;;;;249.32;90.05;;;;;;;;;;4984493;28;20026;-73
2022/09/12 03:03:15;;;;;;;260.27;87.40;;;;;;;;;;4980759;28;20019;-72
2022/09/12 03:05:50;;;;;;;239.15;86.53;;;;;;;;;;4968959;28;20096;-73
2022/09/12 03:08:19;;;;;;;254.38;88.63;;;;;;;;;;4986270;28;20019;-73
2022/09/12 03:10:54;;;;;;;251.60;86.93;;;;;;;;;;4985716;28;20036;-73
2022/09/12 03:14:00;;;;;;;267.27;88.90;;;;;;;;;;4982571;28;20184;-73
2022/09/12 03:16:30;;;;;;;263.52;89.95;;;;;;;;;;4887482;29;20325;-73
2022/09/12 03:19:14;;;;;;;255.63;87.50;;;;;;;;;;4888318;29;20202;-73
2022/09/12 03:21:47;;;;;;;257.00;88.40;;;;;;;;;;4949186;28;20050;-74
2022/09/12 03:24:15;;;;;;;243.93;88.88;;;;;;;;;;4983570;28;20030;-74
2022/09/12 03:26:41;;;;;;;260.08;90.55;;;;;;;;;;4983945;28;20042;-73
2022/09/12 03:29:08;;;;;;;282.20;91.72;;;;;;;;;;4969937;28;20522;-74
2022/09/12 03:31:34;;;;;;;251.82;87.97;;;;;;;;;;4986318;28;20038;-74
2022/09/12 03:34:00;;;;;;;253.35;88.10;;;;;;;;;;4984417;28;20045;-73
2022/09/12 03:36:27;;;;;;;272.38;89.93;;;;;;;;;;4986249;28;20053;-73
2022/09/12 03:38:53;;;;;;;260.90;89.45;;;;;;;;;;4967537;28;20045;-73
2022/09/12 03:41:20;;;;;;;251.63;85.25;;;;;;;;;;4985801;28;20042;-73
2022/09/12 03:43:46;;;;;;;263.75;85.85;;;;;;;;;;4982452;28;20030;-73
2022/09/12 03:46:12;;;;;;;247.13;86.22;;;;;;;;;;4984554;28;20062;-73
2022/09/12 03:48:38;;;;;;;241.00;86.45;;;;;;;;;;4982167;28;20034;-73
2022/09/12 03:51:06;;;;;;;247.73;84.63;;;;;;;;;;4985124;28;20096;-74
2022/09/12 03:53:32;;;;;;;224.02;86.45;;;;;;;;;;4981310;28;20054;-74
2022/09/12 03:55:58;;;;;;;242.38;86.38;;;;;;;;;;4967166;28;20074;-74
2022/09/12 03:58:25;;;;;;;267.63;95.35;;;;;;;;;;4981559;28;20034;-74
2022/09/12 04:00:51;;;;;;;264.02;91.82;;;;;;;;;;4980608;28;20026;-74
2022/09/12 04:03:18;;;;;;;265.08;93.30;;;;;;;;;;4986569;28;20022;-74
2022/09/12 04:05:45;;;;;;;250.20;92.53;;;;;;;;;;4987381;28;20297;-74
2022/09/12 04:08:11;;;;;;;248.52;90.63;;;;;;;;;;4983296;28;20029;-74
2022/09/12 04:10:37;;;;;;;251.10;91.57;;;;;;;;;;4968059;28;20026;-74
2022/09/12 04:13:03;;;;;;;246.88;89.35;;;;;;;;;;4986285;28;20037;-74
2022/09/12 04:15:29;;;;;;;249.65;85.55;;;;;;;;;;4988400;28;20480;-74
2022/09/12 04:17:55;;;;;;;235.88;85.82;;;;;;;;;;4986489;28;20054;-74
2022/09/12 04:20:21;;;;;;;235.95;85.75;;;;;;;;;;4987181;28;20023;-73
2022/09/12 04:22:47;;;;;;;243.07;88.40;;;;;;;;;;4985756;28;20034;-75
2022/09/12 04:25:14;;;;;;;215.75;82.38;;;;;;;;;;4986081;28;20093;-74
2022/09/12 04:27:40;;;;;;;232.50;82.97;;;;;;;;;;4988147;28;20035;-75
2022/09/12 04:30:07;;;;;;;229.15;84.20;;;;;;;;;;4989042;28;20058;-74
2022/09/12 04:32:33;;;;;;;290.38;87.38;;;;;;;;;;4984972;28;20038;-74
2022/09/12 04:34:59;;;;;;;258.67;82.32;;;;;;;;;;4983942;28;20038;-75
2022/09/12 04:37:25;;;;;;;301.77;84.95;;;;;;;;;;4987698;28;20030;-74
2022/09/12 04:39:56;;;;;;;250.73;83.32;;;;;;;;;;4984139;28;20038;-75
2022/09/12 04:42:22;;;;;;;201.27;77.22;;;;;;;;;;4966710;28;20106;-74
2022/09/12 04:44:48;;;;;;;209.82;80.70;;;;;;;;;;4967047;28;20038;-75
2022/09/12 04:47:15;;;;;;;202.05;79.05;;;;;;;;;;4990286;28;20030;-74
2022/09/12 04:49:41;;;;;;;204.85;78.75;;;;;;;;;;4987688;28;20034;-73
2022/09/12 04:52:07;;;;;;;198.13;78.97;;;;;;;;;;4965112;28;20073;-74
2022/09/12 04:54:33;;;;;;;197.55;78.75;;;;;;;;;;4981370;28;20308;-73
2022/09/12 04:56:59;;;;;;;194.38;73.18;;;;;;;;;;4988760;28;20369;-73
2022/09/12 04:59:26;;;;;;;204.95;75.63;;;;;;;;;;4986295;28;20034;-73
2022/09/12 05:01:53;;;;;;;200.65;78.03;;;;;;;;;;4986877;28;20031;-74
2022/09/12 05:04:19;;;;;;;200.98;76.45;;;;;;;;;;4967590;28;20112;-74
2022/09/12 05:06:46;;;;;;;197.82;74.15;;;;;;;;;;4968681;28;20507;-74
2022/09/12 05:09:13;;;;;;;214.95;77.28;;;;;;;;;;4987823;28;20141;-73
2022/09/12 05:11:41;;;;;;;187.65;74.43;;;;;;;;;;4985746;28;20039;-74
2022/09/12 05:14:10;;;;;;;204.40;76.40;;;;;;;;;;4983735;28;20027;-73
2022/09/12 05:16:36;;;;;;;197.13;76.22;;;;;;;;;;4988922;28;20030;-74
2022/09/12 05:19:03;;;;;;;187.32;73.20;;;;;;;;;;4989130;28;20057;-74
2022/09/12 05:21:29;;;;;;;196.98;75.30;;;;;;;;;;4983130;28;20171;-74
2022/09/12 05:23:57;;;;;;;198.68;75.43;;;;;;;;;;4975674;28;20065;-73
2022/09/12 05:26:23;;;;;;;186.02;72.22;;;;;;;;;;4986628;28;20027;-74
2022/09/12 05:28:50;;;;;;;182.10;75.00;;;;;;;;;;4983714;28;20034;-73
2022/09/12 05:31:17;;;;;;;203.73;75.15;;;;;;;;;;4988296;28;20026;-73
2022/09/12 05:33:45;;;;;;;165.70;71.30;;;;;;;;;;4974683;28;20034;-73
2022/09/12 05:36:12;;;;;;;182.32;72.18;;;;;;;;;;4991572;28;20031;-73
2022/09/12 05:38:39;;;;;;;181.27;72.97;;;;;;;;;;4988951;28;20042;-73
2022/09/12 05:41:05;;;;;;;173.63;69.50;;;;;;;;;;4992816;28;20361;-73
2022/09/12 05:43:32;;;;;;;181.65;73.13;;;;;;;;;;4989024;28;20627;-73
2022/09/12 05:46:02;;;;;;;178.85;70.22;;;;;;;;;;4973581;28;20081;-73
2022/09/12 05:48:28;;;;;;;187.77;70.85;;;;;;;;;;4990666;28;20123;-73
2022/09/12 05:51:01;;;;;;;188.95;74.70;;;;;;;;;;4989267;28;20508;-73
2022/09/12 05:53:28;;;;;;;180.15;72.57;;;;;;;;;;4985186;28;20129;-73
2022/09/12 05:56:03;;;;;;;197.07;74.57;;;;;;;;;;4989835;28;20030;-73
2022/09/12 05:58:29;;;;;;;186.57;73.32;;;;;;;;;;4981448;28;20034;-73
2022/09/12 06:00:56;;;;;;;182.40;73.93;;;;;;;;;;4988217;28;20041;-73
2022/09/12 06:03:22;;;;;;;181.98;73.07;;;;;;;;;;4989681;28;20572;-74
2022/09/12 06:05:48;;;;;;;177.30;73.13;;;;;;;;;;4981995;28;20457;-72
2022/09/12 06:08:14;;;;;;;176.43;70.93;;;;;;;;;;4986023;28;20042;-73
2022/09/12 06:10:40;;;;;;;162.18;69.70;;;;;;;;;;4983138;28;20031;-73
2022/09/12 06:13:07;;;;;;;170.43;75.22;;;;;;;;;;4985200;28;20022;-73
2022/09/12 06:15:33;;;;;;;151.50;68.40;;;;;;;;;;4983168;28;20054;-72
2022/09/12 06:17:59;;;;;;;157.52;68.60;;;;;;;;;;4964073;28;20039;-74
2022/09/12 06:20:25;;;;;;;151.38;66.78;;;;;;;;;;4969655;28;20058;-73
2022/09/12 06:22:53;;;;;;;145.20;66.72;;;;;;;;;;4987249;28;20046;-73
2022/09/12 06:25:18;;;;;;;142.75;67.65;;;;;;;;;;4985016;28;20247;-74
2022/09/12 06:27:46;;;;;;;124.22;64.13;;;;;;;;;;4975831;28;20118;-73
2022/09/12 06:30:12;;;;;;;123.78;61.92;;;;;;;;;;4980065;28;20014;-74
2022/09/12 06:32:38;;;;;;;114.90;60.35;;;;;;;;;;4966747;28;20436;-73
2022/09/12 06:35:04;;;;;;;110.57;57.45;;;;;;;;;;4980925;28;20045;-74
2022/09/12 06:37:31;;;;;;;107.68;56.55;;;;;;;;;;4984620;28;20037;-74
2022/09/12 06:39:57;;;;;;;96.55;56.03;;;;;;;;;;4994508;28;20117;-74
2022/09/12 06:42:23;;;;;;;90.10;51.40;;;;;;;;;;4969943;28;20050;-74
2022/09/12 06:44:49;;;;;;;85.63;51.00;;;;;;;;;;4987715;28;20494;-73
2022/09/12 06:47:15;;;;;;;75.38;47.58;;;;;;;;;;4990853;28;20069;-73
2022/09/12 06:49:41;;;;;;;84.38;52.13;;;;;;;;;;4991167;28;20527;-73
2022/09/12 06:52:08;;;;;;;82.03;50.35;;;;;;;;;;4995358;28;20042;-73
2022/09/12 06:54:34;;;;;;;82.40;49.92;;;;;;;;;;4994236;28;20409;-73
2022/09/12 06:57:00;;;;;;;87.32;53.00;;;;;;;;;;4979154;28;20030;-73
2022/09/12 06:59:26;;;;;;;89.57;52.35;;;;;;;;;;4980983;28;20045;-73
2022/09/12 07:01:51;;;;;;;84.50;51.25;;;;;;;;;;4990927;28;20038;-73
2022/09/12 07:04:18;;;;;;;81.65;51.67;;;;;;;;;;4991549;28;20491;-73
2022/09/12 07:06:44;;;;;;;84.07;52.80;;;;;;;;;;4993204;28;20511;-73
2022/09/12 07:09:17;;;;;;;77.95;50.17;;;;;;;;;;4992398;28;20072;-74
2022/09/12 07:11:44;;;;;;;84.53;51.90;;;;;;;;;;4990412;28;20069;-74
2022/09/12 07:14:12;;;;;;;82.55;49.92;;;;;;;;;;4986780;28;20492;-74
2022/09/12 07:16:38;;;;;;;76.28;48.28;;;;;;;;;;4985531;28;20562;-74
2022/09/12 07:19:05;;;;;;;73.10;47.13;;;;;;;;;;4991194;28;20030;-73
2022/09/12 07:21:31;;;;;;;69.82;46.10;;;;;;;;;;4990571;28;20022;-72
2022/09/12 07:23:58;;;;;;;69.60;44.45;;;;;;;;;;4989811;28;20035;-74
2022/09/12 07:26:24;;;;;;;65.75;42.63;;;;;;;;;;4989554;28;20592;-74
2022/09/12 07:28:52;;;;;;;63.10;42.85;;;;;;;;;;4970668;28;20550;-74
2022/09/12 07:31:19;;;;;;;65.85;42.78;;;;;;;;;;4990975;28;20034;-74
2022/09/12 07:33:46;;;;;;;58.50;40.95;;;;;;;;;;4991324;28;20371;-74
2022/09/12 07:36:13;;;;;;;58.08;40.85;;;;;;;;;;4991340;28;20146;-76
2022/09/12 07:38:39;;;;;;;68.35;40.92;;;;;;;;;;4986467;28;20501;-74
2022/09/12 07:41:22;;;;;;;60.30;40.92;;;;;;;;;;4990579;28;20106;-74
2022/09/12 07:43:51;;;;;;;62.58;40.25;;;;;;;;;;4988725;28;20050;-74
2022/09/12 07:46:17;;;;;;;56.83;39.08;;;;;;;;;;4988117;28;20057;-74
2022/09/12 07:48:44;;;;;;;57.55;39.35;;;;;;;;;;4956399;28;20027;-74
2022/09/12 07:51:12;;;;;;;56.58;38.67;;;;;;;;;;4989943;28;20168;-74
2022/09/12 07:53:39;;;;;;;55.75;38.20;;;;;;;;;;4988488;28;20055;-74
2022/09/12 07:56:07;;;;;;;54.95;38.42;;;;;;;;;;4987881;28;20177;-74
2022/09/12 07:58:33;;;;;;;50.67;35.15;;;;;;;;;;4983696;28;20042;-74
2022/09/12 08:01:07;;;;;;;49.33;35.67;;;;;;;;;;4986195;28;20026;-74
2022/09/12 08:03:34;;;;;;;49.45;35.70;;;;;;;;;;4988188;28;20049;-74
2022/09/12 08:06:11;;;;;;;52.50;35.28;;;;;;;;;;4990597;28;20046;-74
2022/09/12 08:08:37;;;;;;;45.10;31.90;;;;;;;;;;4989065;28;20073;-74
2022/09/12 08:11:04;;;;;;;44.97;32.35;;;;;;;;;;4988464;28;20510;-74
2022/09/12 08:13:31;;;;;;;42.20;31.98;;;;;;;;;;4987618;28;20518;-75
2022/09/12 08:16:01;;;;;;;41.72;29.98;;;;;;;;;;4986281;28;20035;-74
2022/09/12 08:18:28;;;;;;;41.35;30.73;;;;;;;;;;4985067;28;20033;-73
2022/09/12 08:20:57;;;;;;;42.58;32.17;;;;;;;;;;4987171;28;20035;-74
2022/09/12 08:23:23;;;;;;;41.87;31.17;;;;;;;;;;4988837;28;20022;-73
2022/09/12 08:25:50;;;;;;;40.50;31.83;;;;;;;;;;4989453;28;20041;-73
2022/09/12 08:28:16;;;;;;;42.05;32.03;;;;;;;;;;4989829;28;20022;-73
2022/09/12 08:30:42;;;;;;;41.92;30.60;;;;;;;;;;4970681;28;20213;-73
2022/09/12 08:33:08;;;;;;;42.28;30.33;;;;;;;;;;4983171;28;20106;-74
2022/09/12 08:35:34;;;;;;;40.85;29.92;;;;;;;;;;4987683;28;20042;-75
2022/09/12 08:38:00;;;;;;;37.60;27.90;;;;;;;;;;4987315;28;20037;-74
2022/09/12 08:40:26;;;;;;;34.67;26.67;;;;;;;;;;4991061;28;20731;-74
2022/09/12 08:42:57;;;;;;;35.10;26.30;;;;;;;;;;4990072;28;20069;-76
2022/09/12 08:45:29;;;;;;;34.50;23.75;;;;;;;;;;4987237;28;20034;-74
2022/09/12 08:47:56;;;;;;;30.48;24.42;;;;;;;;;;4986890;28;20030;-74
2022/09/12 08:50:22;;;;;;;33.42;23.95;;;;;;;;;;4991496;28;20022;-75
2022/09/12 08:53:02;;;;;;;29.83;22.85;;;;;;;;;;4991953;28;20022;-74
2022/09/12 08:55:30;;;;;;;29.40;22.58;;;;;;;;;;4991741;28;20030;-74
2022/09/12 08:57:57;;;;;;;27.38;21.98;;;;;;;;;;4991363;28;20035;-74
2022/09/12 09:00:23;;;;;;;27.35;21.48;;;;;;;;;;4987946;28;20034;-75
2022/09/12 09:02:52;;;;;;;22.45;18.70;;;;;;;;;;4991293;28;20034;-74
2022/09/12 09:05:22;;;;;;;24.00;18.58;;;;;;;;;;4978845;28;20174;-75
2022/09/12 09:07:48;;;;;;;27.40;19.00;;;;;;;;;;4980875;28;20101;-73
2022/09/12 09:10:23;;;;;;;27.30;19.50;;;;;;;;;;4991846;28;20030;-74
2022/09/12 09:12:49;;;;;;;28.00;18.33;;;;;;;;;;4989678;28;20552;-74
2022/09/12 09:15:34;;;;;;;24.95;19.98;;;;;;;;;;4985343;28;20053;-75
2022/09/12 09:18:03;;;;;;;25.48;19.83;;;;;;;;;;4986922;28;20499;-74
2022/09/12 09:20:42;;;;;;;24.83;19.95;;;;;;;;;;4988915;28;20046;-74
2022/09/12 09:23:14;;;;;;;24.05;20.17;;;;;;;;;;4988599;28;20558;-74
2022/09/12 09:25:40;;;;;;;26.02;19.52;;;;;;;;;;4989063;28;20046;-74
2022/09/12 09:28:11;;;;;;;24.42;19.17;;;;;;;;;;4989016;28;20081;-74
2022/09/12 09:30:37;;;;;;;29.27;20.48;;;;;;;;;;4987866;28;20137;-73
2022/09/12 09:33:04;;;;;;;30.58;19.10;;;;;;;;;;4980639;28;20381;-75
2022/09/12 09:35:44;;;;;;;22.17;15.85;;;;;;;;;;4990132;28;20551;-74
2022/09/12 09:38:17;;;;;;;21.60;17.13;;;;;;;;;;4991943;28;20026;-75
2022/09/12 09:40:59;;;;;;;26.17;16.05;;;;;;;;;;4992800;28;20105;-75
2022/09/12 09:43:28;;;;;;;20.10;16.08;;;;;;;;;;4992411;28;20038;-74
2022/09/12 09:45:56;;;;;;;20.13;15.47;;;;;;;;;;4986253;28;20038;-74
2022/09/12 09:48:25;;;;;;;21.55;14.93;;;;;;;;;;4989455;28;20030;-75
2022/09/12 09:50:51;;;;;;;19.08;14.52;;;;;;;;;;4992994;28;20121;-74
2022/09/12 09:53:32;;;;;;;19.20;16.27;;;;;;;;;;4991892;28;20038;-73
2022/09/12 09:56:02;;;;;;;21.40;14.55;;;;;;;;;;4991251;28;20058;-74
2022/09/12 09:58:29;;;;;;;18.17;14.70;;;;;;;;;;4992219;28;20117;-74
2022/09/12 10:01:04;;;;;;;21.23;12.60;;;;;;;;;;4982868;28;20080;-74
2022/09/12 10:03:32;;;;;;;17.73;11.80;;;;;;;;;;4977926;28;20026;-74
2022/09/12 10:06:18;;;;;;;13.18;11.38;;;;;;;;;;4992821;28;20045;-74
2022/09/12 10:08:44;;;;;;;16.58;11.77;;;;;;;;;;4971868;28;20042;-74
2022/09/12 10:11:21;;;;;;;16.05;12.45;;;;;;;;;;4987018;28;20057;-74
2022/09/12 10:13:51;;;;;;;12.57;10.55;;;;;;;;;;4991428;28;20038;-74
2022/09/12 10:16:33;;;;;;;16.40;11.38;;;;;;;;;;4991466;28;20034;-74
2022/09/12 10:19:00;;;;;;;16.27;10.75;;;;;;;;;;4988902;28;20034;-73
2022/09/12 10:21:38;;;;;;;12.88;10.60;;;;;;;;;;4991465;28;20054;-74
2022/09/12 10:24:04;;;;;;;18.77;11.20;;;;;;;;;;4992301;28;20132;-73
2022/09/12 10:26:33;;;;;;;15.35;10.80;;;;;;;;;;4988927;28;20496;-73
2022/09/12 10:29:02;;;;;;;14.85;10.32;;;;;;;;;;4991963;28;20077;-73
2022/09/12 10:31:34;;;;;;;14.68;9.73;;;;;;;;;;4987305;28;20034;-73
2022/09/12 10:34:00;;;;;;;12.95;8.95;;;;;;;;;;4987534;28;20030;-72
2022/09/12 10:36:34;;;;;;;11.48;8.82;;;;;;;;;;4970164;28;20221;-73
2022/09/12 10:39:01;;;;;;;12.32;8.80;;;;;;;;;;4983181;28;20038;-73
2022/09/12 10:41:34;;;;;;;10.48;8.60;;;;;;;;;;4986415;28;20037;-73
2022/09/12 10:44:26;;;;;;;15.27;9.20;;;;;;;;;;4980142;28;20039;-73
2022/09/12 10:46:54;;;;;;;13.18;7.43;;;;;;;;;;4986378;28;20030;-74
2022/09/12 10:49:20;;;;;;;15.02;8.80;;;;;;;;;;4973791;28;20077;-73
2022/09/12 10:51:46;;;;;;;14.38;8.98;;;;;;;;;;4991645;28;20033;-73
2022/09/12 10:54:16;;;;;;;12.75;8.82;;;;;;;;;;4989681;28;20511;-73
2022/09/12 10:56:57;;;;;;;11.05;8.65;;;;;;;;;;4974424;28;20105;-73
2022/09/12 10:59:42;;;;;;;14.40;8.95;;;;;;;;;;4991572;28;20100;-72
2022/09/12 11:02:22;;;;;;;11.52;8.20;;;;;;;;;;4983247;28;20054;-73
2022/09/12 11:04:59;;;;;;;11.77;8.60;;;;;;;;;;4991407;28;20026;-72
2022/09/12 11:07:28;;;;;;;9.23;7.35;;;;;;;;;;4991233;28;20445;-73
2022/09/12 11:10:16;;;;;;;8.90;7.00;;;;;;;;;;4986530;28;20062;-74
2022/09/12 11:12:54;;;;;;;8.02;6.18;;;;;;;;;;4988941;28;20034;-74
2022/09/12 11:15:24;;;;;;;11.52;7.22;;;;;;;;;;4994420;28;20092;-72
2022/09/12 11:17:52;;;;;;;10.68;6.57;;;;;;;;;;4994916;28;20026;-75
2022/09/12 11:20:57;;;;;;;11.70;6.40;;;;;;;;;;4994179;28;20030;-74
2022/09/12 11:23:29;;;;;;;8.63;6.38;;;;;;;;;;4897577;29;20005;-74
2022/09/12 11:26:16;;;;;;;5.90;5.30;;;;;;;;;;4893263;29;20040;-75
2022/09/12 11:28:42;;;;;;;9.80;6.05;;;;;;;;;;4909843;28;20038;-73
2022/09/12 11:31:21;;;;;;;9.63;6.28;;;;;;;;;;4991170;28;20026;-74
2022/09/12 11:33:49;;;;;;;8.48;6.18;;;;;;;;;;4991889;28;20026;-73
2022/09/12 11:36:32;;;;;;;8.48;6.25;;;;;;;;;;4989724;28;20654;-73
2022/09/12 11:38:59;;;;;;;11.75;5.97;;;;;;;;;;4978070;28;20122;-73
2022/09/12 11:41:46;;;;;;;8.25;5.35;;;;;;;;;;4985502;28;20143;-74
2022/09/12 11:44:22;;;;;;;15.15;6.10;;;;;;;;;;4988144;28;20042;-74
2022/09/12 11:46:48;;;;;;;11.35;6.15;;;;;;;;;;4983114;28;20034;-74
2022/09/12 11:49:34;;;;;;;7.97;6.53;;;;;;;;;;4989735;28;20056;-73
2022/09/12 11:52:04;;;;;;;8.45;6.50;;;;;;;;;;4984896;28;20100;-73
2022/09/12 11:54:33;;;;;;;8.83;6.47;;;;;;;;;;4974556;28;20050;-74
2022/09/12 11:57:05;;;;;;;10.93;7.22;;;;;;;;;;4986623;28;20034;-73
2022/09/12 11:59:34;;;;;;;12.10;6.70;;;;;;;;;;4988963;28;20038;-72
2022/09/12 12:02:02;;;;;;;9.02;5.95;;;;;;;;;;4986640;28;20026;-73
2022/09/12 12:04:39;;;;;;;9.48;6.80;;;;;;;;;;4990085;28;20058;-73
2022/09/12 12:07:09;;;;;;;12.20;5.40;;;;;;;;;;4989025;28;20568;-73
2022/09/12 12:09:36;;;;;;;12.93;4.43;;;;;;;;;;4988876;28;20065;-73
2022/09/12 12:12:08;;;;;;;6.45;4.80;;;;;;;;;;4986190;28;20038;-73
2022/09/12 12:14:42;;;;;;;7.72;5.22;;;;;;;;;;4986304;28;20535;-73
2022/09/12 12:17:15;;;;;;;8.38;5.35;;;;;;;;;;4985263;28;20113;-73
2022/09/12 12:19:42;;;;;;;8.10;4.70;;;;;;;;;;4981385;28;20391;-73
2022/09/12 12:22:22;;;;;;;6.78;4.70;;;;;;;;;;4983881;28;20023;-72
2022/09/12 12:24:48;;;;;;;;;;;;;;;;;;4979953;28;20468;-73
2022/09/12 12:27:43;;;;;;;8.63;5.20;;;;;;;;;;4978621;28;19921;-73
2022/09/12 12:30:28;;;;;;;9.85;5.10;;;;;;;;;;4983278;28;20045;-72
2022/09/12 12:33:26;;;;;;;14.25;5.13;;;;;;;;;;4990229;28;20030;-73
2022/09/12 12:35:52;;;;;;;9.90;5.95;;;;;;;;;;4984758;28;20113;-73
2022/09/12 12:38:31;;;;;;;5.20;4.32;;;;;;;;;;4983403;28;20161;-73
2022/09/12 12:41:16;;;;;;;6.57;5.65;;;;;;;;;;4988690;28;20030;-74
2022/09/12 12:43:45;;;;;;;10.23;4.95;;;;;;;;;;4988007;28;20211;-73
2022/09/12 12:46:12;;;;;;;9.90;4.60;;;;;;;;;;4984448;28;20511;-74
2022/09/12 12:48:57;;;;;;;5.80;4.03;;;;;;;;;;4983580;28;20133;-73
2022/09/12 12:51:45;;;;;;;6.15;4.68;;;;;;;;;;4984275;28;20041;-72
2022/09/12 12:54:26;;;;;;;5.70;4.18;;;;;;;;;;4981851;28;20030;-73
2022/09/12 12:57:00;;;;;;;8.93;3.78;;;;;;;;;;4982907;28;20084;-73
2022/09/12 12:59:26;;;;;;;8.13;4.55;;;;;;;;;;4954799;28;20292;-73
2022/09/12 13:01:55;;;;;;;8.13;4.72;;;;;;;;;;4965424;28;20038;-73
2022/09/12 13:04:22;;;;;;;8.18;4.70;;;;;;;;;;4983939;28;20082;-72
2022/09/12 13:06:56;;;;;;;7.22;4.45;;;;;;;;;;4985570;28;20491;-73
2022/09/12 13:09:24;;;;;;;9.23;4.70;;;;;;;;;;4984566;28;20566;-73
2022/09/12 13:12:16;;;;;;;7.40;4.70;;;;;;;;;;4987537;28;20030;-72
2022/09/12 13:14:42;;;;;;;7.60;4.38;;;;;;;;;;4969494;28;20041;-72
2022/09/12 13:17:15;;;;;;;6.45;4.20;;;;;;;;;;4991463;28;20027;-73
2022/09/12 13:19:41;;;;;;;6.50;3.83;;;;;;;;;;4988243;28;20558;-73
2022/09/12 13:22:09;;;;;;;7.00;4.63;;;;;;;;;;4991344;28;20032;-73
2022/09/12 13:24:51;;;;;;;13.25;4.40;;;;;;;;;;4974040;28;20040;-72
2022/09/12 13:27:25;;;;;;;7.65;4.32;;;;;;;;;;4976207;28;20910;-73
2022/09/12 13:30:11;;;;;;;6.28;3.95;;;;;;;;;;4992442;28;20033;-73
2022/09/12 13:32:37;;;;;;;5.07;3.90;;;;;;;;;;4992734;28;20042;-73
2022/09/12 13:35:09;;;;;;;8.45;4.15;;;;;;;;;;4989289;28;20030;-72
2022/09/12 13:37:48;;;;;;;7.85;3.85;;;;;;;;;;4993719;28;20069;-73
2022/09/12 13:40:17;;;;;;;5.68;3.85;;;;;;;;;;4991891;28;20031;-72
2022/09/12 13:42:43;;;;;;;4.80;3.40;;;;;;;;;;4966656;28;20034;-72
2022/09/12 13:45:12;;;;;;;6.82;4.22;;;;;;;;;;4988651;28;20080;-73
2022/09/12 13:47:43;;;;;;;7.72;4.53;;;;;;;;;;4991220;28;20038;-72
2022/09/12 13:50:14;;;;;;;4.72;3.15;;;;;;;;;;4964891;28;20436;-72
2022/09/12 13:52:42;;;;;;;4.93;3.70;;;;;;;;;;4992617;28;20133;-72
2022/09/12 13:55:18;;;;;;;8.48;4.10;;;;;;;;;;4989531;28;20121;-72
2022/09/12 13:57:44;;;;;;;6.35;3.85;;;;;;;;;;4974694;28;20396;-72
2022/09/12 14:00:21;;;;;;;4.50;3.40;;;;;;;;;;4992533;28;20034;-72
2022/09/12 14:02:48;;;;;;;7.15;3.63;;;;;;;;;;4991581;28;20086;-73
2022/09/12 14:05:22;;;;;;;7.15;3.40;;;;;;;;;;4990540;28;20037;-72
2022/09/12 14:07:52;;;;;;;5.53;3.30;;;;;;;;;;4987457;28;20109;-72
2022/09/12 14:10:24;;;;;;;6.18;2.78;;;;;;;;;;4985105;28;20030;-76
2022/09/12 14:12:52;;;;;;;9.07;3.40;;;;;;;;;;4985979;28;20101;-72
2022/09/12 14:15:26;;;;;;;11.45;4.30;;;;;;;;;;4986617;28;20109;-72
2022/09/12 14:17:53;;;;;;;4.97;3.65;;;;;;;;;;4988247;28;20033;-72
2022/09/12 14:20:22;;;;;;;11.05;3.83;;;;;;;;;;4979872;28;20042;-73
2022/09/12 14:22:48;;;;;;;6.78;3.60;;;;;;;;;;4991479;28;20173;-73
2022/09/12 14:25:18;;;;;;;6.38;3.33;;;;;;;;;;4974059;28;20111;-73
2022/09/12 14:27:46;;;;;;;3.60;3.00;;;;;;;;;;4985517;28;20430;-73
2022/09/12 14:30:21;;;;;;;5.30;2.88;;;;;;;;;;4982796;28;20038;-74
2022/09/12 14:33:03;;;;;;;5.20;2.90;;;;;;;;;;4982314;28;20030;-74
2022/09/12 14:35:29;;;;;;;5.65;3.20;;;;;;;;;;4987684;28;20034;-73
2022/09/12 14:37:55;;;;;;;8.40;3.55;;;;;;;;;;4987775;28;20033;-74